createdAt,value
2018-12-24T00:02:11.571Z,32.39
2018-12-24T00:12:25.916Z,26.76
2018-12-24T00:17:31.981Z,29.52
2018-12-24T00:22:36.999Z,29.09
2018-12-24T00:27:43.098Z,28.31
2018-12-24T00:32:49.209Z,29.70
2018-12-24T00:37:54.277Z,28.40
2018-12-24T00:42:59.309Z,32.34
2018-12-24T00:48:05.222Z,30.48
2018-12-24T00:53:11.374Z,31.87
2018-12-24T00:58:16.423Z,27.62
2018-12-24T01:03:22.719Z,29.94
2018-12-24T01:08:28.729Z,29.96
2018-12-24T01:13:33.807Z,29.21
2018-12-24T01:18:39.847Z,29.25
2018-12-24T01:23:44.856Z,33.36
2018-12-24T01:28:50.771Z,27.90
2018-12-24T01:33:56.834Z,25.67
2018-12-24T01:39:02.716Z,28.61
2018-12-24T01:44:08.816Z,28.34
2018-12-24T01:49:13.889Z,29.25
2018-12-24T01:54:19.004Z,32.68
2018-12-24T01:59:24.783Z,27.90
2018-12-24T02:04:30.932Z,30.80
2018-12-24T02:09:36.024Z,29.54
2018-12-24T02:14:42.266Z,33.56
2018-12-24T02:19:48.047Z,31.83
2018-12-24T02:24:54.051Z,31.67
2018-12-24T02:30:00.199Z,28.94
2018-12-24T02:35:06.426Z,26.78
2018-12-24T02:40:12.364Z,28.69
2018-12-24T02:45:18.384Z,25.57
2018-12-24T02:50:24.305Z,28.03
2018-12-24T02:55:30.479Z,29.02
2018-12-24T03:00:35.423Z,28.72
2018-12-24T03:05:41.411Z,26.97
2018-12-24T03:10:49.057Z,28.74
2018-12-24T03:15:55.038Z,39.93
2018-12-24T03:21:01.092Z,34.31
2018-12-24T03:26:06.309Z,31.03
2018-12-24T03:31:12.111Z,30.75
2018-12-24T03:36:18.101Z,29.87
2018-12-24T03:41:24.154Z,32.44
2018-12-24T03:46:29.311Z,21.22
2018-12-24T03:51:35.075Z,32.62
2018-12-24T03:56:41.221Z,24.41
2018-12-24T04:01:46.288Z,23.41
2018-12-24T04:06:51.441Z,22.58
2018-12-24T04:11:56.407Z,27.69
2018-12-24T04:17:02.588Z,32.65
2018-12-24T04:22:07.645Z,34.31
2018-12-24T04:27:12.919Z,32.65
2018-12-24T04:32:17.851Z,38.11
2018-12-24T04:37:23.914Z,43.74
2018-12-24T04:42:29.843Z,38.77
2018-12-24T04:47:35.791Z,25.43
2018-12-24T04:52:41.728Z,27.06
2018-12-24T04:57:48.230Z,26.06
2018-12-24T05:02:53.305Z,22.16
2018-12-24T05:07:58.397Z,23.61
2018-12-24T05:13:04.212Z,29.01
2018-12-24T05:18:10.207Z,35.59
2018-12-24T05:23:16.252Z,58.38
2018-12-24T05:28:22.210Z,56.66
2018-12-24T05:33:27.153Z,42.56
2018-12-24T05:38:33.240Z,39.43
2018-12-24T05:43:38.327Z,42.99
2018-12-24T05:48:44.288Z,28.00
2018-12-24T05:53:50.182Z,24.13
2018-12-24T05:58:56.184Z,32.74
2018-12-24T06:04:02.254Z,27.14
2018-12-24T06:09:07.314Z,19.21
2018-12-24T06:14:13.392Z,23.75
2018-12-24T06:19:18.523Z,21.99
2018-12-24T06:24:24.467Z,19.13
2018-12-24T06:29:30.496Z,18.27
2018-12-24T06:34:36.427Z,18.88
2018-12-24T06:39:42.638Z,18.29
2018-12-24T06:44:47.682Z,15.80
2018-12-24T06:49:53.522Z,15.79
2018-12-24T06:54:59.594Z,17.45
2018-12-24T07:00:04.654Z,15.44
2018-12-24T07:05:10.704Z,14.85
2018-12-24T07:10:16.540Z,14.46
2018-12-24T07:15:22.496Z,15.54
2018-12-24T07:20:28.611Z,14.65
2018-12-24T07:25:34.654Z,16.48
2018-12-24T07:30:39.711Z,15.45
2018-12-24T07:35:45.691Z,15.03
2018-12-24T07:40:51.841Z,15.13
2018-12-24T07:45:57.766Z,14.59
2018-12-24T07:51:02.993Z,15.44
2018-12-24T07:56:07.912Z,17.53
2018-12-24T08:01:14.258Z,16.30
2018-12-24T08:06:20.056Z,14.94
2018-12-24T08:11:26.175Z,16.76
2018-12-24T08:16:31.135Z,15.47
2018-12-24T08:21:37.187Z,16.99
2018-12-24T08:26:43.082Z,17.90
2018-12-24T08:31:48.328Z,17.44
2018-12-24T08:36:54.394Z,23.63
2018-12-24T08:41:59.683Z,19.31
2018-12-24T08:47:04.790Z,21.08
2018-12-24T08:52:09.888Z,21.05
2018-12-24T08:57:15.918Z,20.98
2018-12-24T09:02:21.881Z,20.63
2018-12-24T09:07:27.801Z,20.78
2018-12-24T09:17:42.545Z,23.37
2018-12-24T09:27:57.048Z,23.28
2018-12-24T09:33:03.074Z,23.98
2018-12-24T09:38:09.002Z,22.17
2018-12-24T09:43:15.139Z,25.03
2018-12-24T09:48:20.219Z,23.75
2018-12-24T09:53:41.594Z,25.15
2018-12-24T09:58:29.576Z,25.19
2018-12-24T10:03:50.617Z,23.24
2018-12-24T10:08:38.881Z,22.37
2018-12-24T10:13:58.932Z,24.78
2018-12-24T10:19:00.074Z,24.33
2018-12-24T10:23:47.652Z,28.28
2018-12-24T10:28:56.008Z,28.53
2018-12-24T10:34:17.187Z,25.78
2018-12-24T10:44:21.969Z,55.31
2018-12-24T10:49:21.952Z,58.30
2018-12-24T10:54:10.344Z,52.01
2018-12-24T10:59:30.324Z,50.94
2018-12-24T11:04:18.650Z,76.32
2018-12-24T11:09:38.818Z,81.33
2018-12-24T11:14:26.092Z,110.79
2018-12-24T11:19:34.322Z,106.76
2018-12-24T11:24:41.475Z,219.95
2018-12-24T11:29:49.743Z,91.02
2018-12-24T11:34:57.267Z,97.95
2018-12-24T11:40:04.328Z,105.11
2018-12-24T11:45:12.655Z,93.18
2018-12-24T11:50:19.793Z,111.40
2018-12-24T11:55:41.090Z,71.23
2018-12-24T12:00:28.303Z,63.48
2018-12-24T12:05:35.801Z,46.53
2018-12-24T12:10:43.084Z,47.15
2018-12-24T12:15:50.425Z,46.26
2018-12-24T12:20:57.493Z,47.55
2018-12-24T12:26:18.582Z,35.75
2018-12-24T12:31:06.857Z,35.08
2018-12-24T12:36:27.290Z,23.02
2018-12-24T12:41:15.395Z,20.63
2018-12-24T12:46:36.572Z,21.37
2018-12-24T12:51:24.694Z,21.88
2018-12-24T12:56:45.881Z,20.96
2018-12-24T13:01:33.046Z,20.96
2018-12-24T13:06:41.321Z,18.31
2018-12-24T13:11:49.651Z,21.08
2018-12-24T13:17:11.132Z,21.45
2018-12-24T13:22:04.283Z,19.99
2018-12-24T13:27:06.940Z,20.59
2018-12-24T13:32:26.548Z,17.03
2018-12-24T13:37:26.188Z,16.64
2018-12-24T13:42:14.418Z,14.61
2018-12-24T13:47:21.702Z,16.01
2018-12-24T13:52:29.000Z,16.45
2018-12-24T13:57:36.235Z,19.68
2018-12-24T14:02:44.486Z,19.48
2018-12-24T14:07:52.581Z,19.12
2018-12-24T14:13:12.715Z,22.40
2018-12-24T14:18:00.133Z,17.76
2018-12-24T14:23:21.278Z,16.97
2018-12-24T14:28:08.952Z,15.71
2018-12-24T14:33:16.068Z,13.68
2018-12-24T14:38:24.314Z,16.63
2018-12-24T14:43:31.643Z,15.06
2018-12-24T14:48:38.963Z,17.06
2018-12-24T14:53:46.998Z,15.26
2018-12-24T14:58:55.248Z,16.94
2018-12-24T15:04:16.350Z,16.36
2018-12-24T15:09:04.555Z,18.59
2018-12-24T15:14:11.673Z,18.28
2018-12-24T15:19:20.155Z,17.29
2018-12-24T15:24:28.461Z,14.33
2018-12-24T15:29:36.887Z,15.24
2018-12-24T15:34:58.016Z,13.39
2018-12-24T15:39:58.115Z,11.93
2018-12-24T15:44:59.251Z,11.75
2018-12-24T15:49:59.625Z,15.72
2018-12-24T15:55:00.574Z,10.75
2018-12-24T15:59:47.918Z,9.91
2018-12-24T16:05:07.991Z,9.50
2018-12-24T16:09:56.234Z,9.97
2018-12-24T16:15:16.240Z,8.03
2018-12-24T16:21:10.582Z,11.59
2018-12-24T16:26:31.597Z,9.98
2018-12-24T16:31:20.084Z,11.27
2018-12-24T16:36:28.212Z,11.94
2018-12-24T16:41:48.473Z,11.85
2018-12-24T16:46:49.595Z,12.65
2018-12-24T16:51:36.984Z,8.91
2018-12-24T17:01:45.083Z,10.31
2018-12-24T17:06:52.335Z,13.22
2018-12-24T17:11:59.608Z,13.39
2018-12-24T17:17:20.599Z,11.58
2018-12-24T17:22:08.834Z,11.60
2018-12-24T17:27:30.075Z,20.65
2018-12-24T17:37:21.111Z,18.36
2018-12-24T17:47:28.962Z,16.61
2018-12-24T17:52:37.294Z,17.61
2018-12-24T17:57:45.366Z,17.82
2018-12-24T18:02:54.121Z,15.30
2018-12-24T18:08:01.246Z,18.63
2018-12-24T18:13:09.559Z,16.56
2018-12-24T18:18:17.776Z,16.63
2018-12-24T18:23:37.978Z,18.67
2018-12-24T18:28:25.201Z,19.31
2018-12-24T18:33:45.432Z,17.69
2018-12-24T18:38:32.481Z,17.92
2018-12-24T18:43:54.004Z,19.97
2018-12-24T18:48:41.199Z,17.76
2018-12-24T18:53:48.534Z,21.76
2018-12-24T18:58:55.737Z,22.52
2018-12-24T19:04:15.958Z,23.18
2018-12-24T19:09:16.073Z,27.66
2018-12-24T19:14:03.363Z,23.15
2018-12-24T19:19:10.515Z,25.31
2018-12-24T19:24:30.926Z,25.30
2018-12-24T19:29:31.081Z,24.30
2018-12-24T19:34:18.531Z,22.30
2018-12-24T19:39:38.632Z,24.39
2018-12-24T19:44:39.002Z,26.04
2018-12-24T19:49:39.310Z,24.53
2018-12-24T19:54:26.630Z,26.56
2018-12-24T19:59:46.621Z,25.48
2018-12-24T20:04:34.974Z,26.37
2018-12-24T20:14:47.346Z,30.39
2018-12-24T20:20:08.301Z,29.50
2018-12-24T20:24:59.535Z,29.89
2018-12-24T20:29:56.722Z,30.11
2018-12-24T20:35:17.144Z,30.21
2018-12-24T20:40:04.446Z,33.78
2018-12-24T20:45:11.558Z,37.15
2018-12-24T20:50:32.638Z,32.88
2018-12-24T20:55:20.067Z,35.54
2018-12-24T21:05:45.331Z,35.13
2018-12-24T21:10:33.585Z,34.94
2018-12-24T21:15:41.995Z,35.43
2018-12-24T21:20:50.088Z,33.17
2018-12-24T21:26:11.188Z,32.47
2018-12-24T21:30:58.481Z,33.43
2018-12-24T21:36:19.852Z,29.90
2018-12-24T21:41:08.201Z,32.83
2018-12-24T21:46:28.308Z,32.52
2018-12-24T21:51:16.545Z,36.57
2018-12-24T21:56:23.982Z,37.18
2018-12-24T22:01:32.066Z,32.40
2018-12-24T22:06:40.436Z,33.82
2018-12-24T22:12:01.597Z,37.11
2018-12-24T22:17:01.826Z,34.89
2018-12-24T22:21:49.132Z,36.05
2018-12-24T22:26:56.953Z,32.93
2018-12-24T22:32:04.294Z,37.73
2018-12-24T22:37:11.692Z,36.57
2018-12-24T22:42:31.832Z,42.89
2018-12-24T22:47:32.145Z,39.92
2018-12-24T22:52:33.341Z,40.47
2018-12-24T22:57:20.642Z,43.59
2018-12-24T23:02:28.736Z,45.33
2018-12-24T23:07:50.191Z,45.87
2018-12-24T23:12:50.319Z,49.90
2018-12-24T23:17:37.474Z,44.21
2018-12-24T23:27:49.371Z,52.64
2018-12-24T23:32:56.464Z,67.47
2018-12-24T23:38:04.814Z,88.17
2018-12-24T23:43:25.416Z,117.95
2018-12-24T23:48:12.854Z,81.51
2018-12-24T23:53:20.027Z,72.62
2018-12-24T23:58:40.264Z,64.29
